Time;durP1;ratioP1;P1;durP2;ratioP2;P2;SDS_P1;SDS_P2;PMS_P1;PMS_P2;Temp;Humidity;BMP_temperature;BMP_pressure;BME280_temperature;BME280_humidity;BME280_pressure;Samples;Min_cycle;Max_cycle;Signal;HPM_P1;HPM_P2
2023/06/03 00:00:18;;;;;;;7.70;4.67;;;16.90;99.90;;;;;;5072536;28;20188;-77
2023/06/03 00:02:52;;;;;;;12.57;5.10;;;16.70;99.90;;;;;;5072949;28;20188;-78
2023/06/03 00:05:19;;;;;;;14.47;5.03;;;16.70;99.90;;;;;;5074429;28;20632;-76
2023/06/03 00:07:51;;;;;;;7.80;4.87;;;16.60;99.90;;;;;;5072784;28;20527;-76
2023/06/03 00:10:20;;;;;;;12.67;4.50;;;16.60;99.90;;;;;;5074022;28;20228;-78
2023/06/03 00:12:45;;;;;;;11.47;5.53;;;16.50;99.90;;;;;;5073736;28;20506;-76
2023/06/03 00:15:13;;;;;;;11.13;5.20;;;16.40;99.90;;;;;;5071987;28;20262;-77
2023/06/03 00:17:39;;;;;;;14.17;5.60;;;16.40;99.90;;;;;;5071387;28;20283;-77
2023/06/03 00:20:09;;;;;;;12.03;5.60;;;16.40;99.90;;;;;;5072404;28;20405;-77
2023/06/03 00:22:36;;;;;;;11.23;4.83;;;16.40;99.90;;;;;;5072817;28;20171;-78
2023/06/03 00:25:07;;;;;;;12.77;5.53;;;16.40;99.90;;;;;;5072898;28;20193;-78
2023/06/03 00:27:34;;;;;;;11.60;5.40;;;16.30;99.90;;;;;;5073159;28;20509;-77
2023/06/03 00:30:05;;;;;;;15.87;5.23;;;16.10;99.90;;;;;;5071506;28;20175;-77
2023/06/03 00:32:31;;;;;;;13.63;5.40;;;16.20;99.90;;;;;;5073844;28;20179;-77
2023/06/03 00:35:02;;;;;;;10.97;5.53;;;16.20;99.90;;;;;;5074213;28;20257;-76
2023/06/03 00:37:30;;;;;;;9.53;5.10;;;16.20;99.90;;;;;;5072581;28;20160;-78
2023/06/03 00:39:55;;;;;;;11.90;5.07;;;16.20;99.90;;;;;;5073352;28;20166;-77
2023/06/03 00:42:22;;;;;;;14.20;5.97;;;16.20;99.90;;;;;;5076455;28;20580;-77
2023/06/03 00:44:47;;;;;;;10.23;5.10;;;16.20;99.90;;;;;;5077900;28;20672;-77
2023/06/03 00:47:17;;;;;;;11.70;5.40;;;16.20;99.90;;;;;;5077442;28;20164;-77
2023/06/03 00:49:44;;;;;;;11.63;5.00;;;16.30;99.90;;;;;;5076972;28;20547;-77
2023/06/03 00:52:15;;;;;;;12.43;5.90;;;16.30;99.90;;;;;;5075891;28;20547;-78
2023/06/03 00:54:49;;;;;;;10.07;5.60;;;16.20;99.90;;;;;;5076867;28;20170;-78
2023/06/03 00:57:15;;;;;;;10.27;4.93;;;16.10;99.90;;;;;;5075603;28;20181;-77
2023/06/03 00:59:42;;;;;;;11.30;5.57;;;16.00;99.90;;;;;;5075700;28;20192;-77
2023/06/03 01:02:13;;;;;;;11.90;5.83;;;16.00;99.90;;;;;;5075593;28;20172;-79
2023/06/03 01:04:42;;;;;;;15.13;5.80;;;16.00;99.90;;;;;;5075209;28;20210;-78
2023/06/03 01:07:29;;;;;;;10.20;5.87;;;16.00;99.90;;;;;;5075353;28;20675;-77
2023/06/03 01:09:58;;;;;;;9.77;5.87;;;15.90;99.90;;;;;;5076234;28;20175;-77
2023/06/03 01:12:48;;;;;;;10.43;6.23;;;15.80;99.90;;;;;;5076697;28;20631;-77
2023/06/03 01:15:20;;;;;;;10.40;5.80;;;15.80;99.90;;;;;;5075258;28;20171;-79
2023/06/03 01:17:50;;;;;;;12.23;6.27;;;15.80;99.90;;;;;;5078041;28;20204;-77
2023/06/03 01:20:17;;;;;;;11.77;6.33;;;15.90;99.90;;;;;;5076453;28;20186;-76
2023/06/03 01:22:49;;;;;;;11.17;6.50;;;16.00;99.90;;;;;;5075683;28;20183;-76
2023/06/03 01:25:16;;;;;;;11.23;6.37;;;15.90;99.90;;;;;;5076811;28;20260;-77
2023/06/03 01:27:48;;;;;;;16.70;7.20;;;16.00;99.90;;;;;;5076803;28;20535;-77
2023/06/03 01:30:18;;;;;;;13.47;6.83;;;15.80;99.90;;;;;;5076841;28;20147;-78
2023/06/03 01:32:46;;;;;;;14.67;7.00;;;15.80;99.90;;;;;;5075798;28;20247;-77
2023/06/03 01:35:14;;;;;;;14.33;6.87;;;15.80;99.90;;;;;;5075997;28;20555;-77
2023/06/03 01:37:41;;;;;;;14.27;7.40;;;15.60;99.90;;;;;;5074640;28;20270;-78
2023/06/03 01:40:08;;;;;;;11.07;6.60;;;15.50;99.90;;;;;;5074862;28;20605;-77
2023/06/03 01:42:37;;;;;;;12.40;7.20;;;15.50;99.90;;;;;;5075949;28;20604;-78
2023/06/03 01:45:04;;;;;;;12.27;6.90;;;15.50;99.90;;;;;;5075905;28;20269;-77
2023/06/03 01:47:32;;;;;;;12.47;6.60;;;15.50;99.90;;;;;;5075710;28;20170;-77
2023/06/03 01:50:04;;;;;;;12.63;6.63;;;15.50;99.90;;;;;;5076492;28;20172;-77
2023/06/03 01:52:31;;;;;;;13.57;7.03;;;15.50;99.90;;;;;;5074590;28;20165;-76
2023/06/03 01:54:58;;;;;;;10.30;7.13;;;15.50;99.90;;;;;;5074541;28;20586;-77
2023/06/03 01:57:24;;;;;;;10.53;7.37;;;15.50;99.90;;;;;;5076473;28;20243;-77
2023/06/03 01:59:52;;;;;;;14.50;7.00;;;15.50;99.90;;;;;;5076376;28;20610;-78
2023/06/03 02:02:18;;;;;;;14.00;7.37;;;15.50;99.90;;;;;;5076593;28;20270;-78
2023/06/03 02:04:51;;;;;;;12.30;7.17;;;15.60;99.90;;;;;;5074576;28;20943;-77
2023/06/03 02:07:17;;;;;;;12.90;7.17;;;15.60;99.90;;;;;;5075108;28;20167;-79
2023/06/03 02:09:44;;;;;;;14.10;7.37;;;15.50;99.90;;;;;;5076127;28;20243;-77
2023/06/03 02:12:13;;;;;;;13.50;6.83;;;15.60;99.90;;;;;;5075263;28;20221;-77
2023/06/03 02:14:41;;;;;;;10.97;8.00;;;15.50;99.90;;;;;;5075588;28;20183;-77
2023/06/03 02:17:07;;;;;;;11.30;7.10;;;15.50;99.90;;;;;;5073907;28;20275;-76
2023/06/03 02:19:34;;;;;;;13.10;6.67;;;15.50;99.90;;;;;;5075057;28;20660;-76
2023/06/03 02:22:01;;;;;;;12.13;7.30;;;15.50;99.90;;;;;;5074830;28;20163;-77
2023/06/03 02:24:28;;;;;;;15.63;7.47;;;15.50;99.90;;;;;;5074685;28;20183;-76
2023/06/03 02:26:56;;;;;;;12.17;6.97;;;15.40;99.90;;;;;;5074625;28;20231;-77
2023/06/03 02:29:25;;;;;;;11.73;7.60;;;15.40;99.90;;;;;;5073554;28;20167;-77
2023/06/03 02:31:53;;;;;;;11.60;7.63;;;15.40;99.90;;;;;;5073175;28;20171;-76
2023/06/03 02:34:19;;;;;;;12.43;7.40;;;15.30;99.90;;;;;;5074332;28;20179;-76
2023/06/03 02:36:45;;;;;;;14.20;7.87;;;15.30;99.90;;;;;;5074384;28;20163;-77
2023/06/03 02:39:11;;;;;;;13.33;7.87;;;15.40;99.90;;;;;;5074477;28;20168;-76
2023/06/03 02:41:41;;;;;;;14.97;8.17;;;15.30;99.90;;;;;;5074550;28;20160;-77
2023/06/03 02:44:07;;;;;;;12.23;7.23;;;15.20;99.90;;;;;;5074160;28;20194;-77
2023/06/03 02:46:33;;;;;;;14.80;7.53;;;15.20;99.90;;;;;;5074633;28;20156;-77
2023/06/03 02:49:02;;;;;;;11.03;7.43;;;15.20;99.90;;;;;;5074815;28;20238;-77
2023/06/03 02:51:28;;;;;;;12.13;8.33;;;15.20;99.90;;;;;;5073031;28;20221;-76
2023/06/03 02:53:53;;;;;;;15.03;7.90;;;15.20;99.90;;;;;;5074230;28;20199;-76
2023/06/03 02:56:22;;;;;;;16.17;8.00;;;15.20;99.90;;;;;;5072482;28;20533;-76
2023/06/03 02:58:50;;;;;;;14.27;8.30;;;15.10;99.90;;;;;;5074080;28;20181;-76
2023/06/03 03:01:17;;;;;;;13.60;8.03;;;15.20;99.90;;;;;;5074220;28;20171;-76
2023/06/03 03:03:46;;;;;;;17.03;8.70;;;15.20;99.90;;;;;;5073882;28;20171;-76
2023/06/03 03:06:12;;;;;;;14.67;7.90;;;15.10;99.90;;;;;;5073956;28;20183;-76
2023/06/03 03:08:38;;;;;;;13.53;7.77;;;15.10;99.90;;;;;;5072713;28;20236;-77
2023/06/03 03:11:06;;;;;;;13.33;8.17;;;15.10;99.90;;;;;;5073939;28;20593;-77
2023/06/03 03:13:31;;;;;;;15.40;8.47;;;15.00;99.90;;;;;;5074027;28;20616;-77
2023/06/03 03:15:59;;;;;;;16.00;8.80;;;15.00;99.90;;;;;;5073823;28;20171;-77
2023/06/03 03:18:25;;;;;;;15.00;8.73;;;15.00;99.90;;;;;;5073620;28;20162;-76
2023/06/03 03:20:51;;;;;;;13.40;9.00;;;15.00;99.90;;;;;;5073469;28;20628;-77
2023/06/03 03:23:17;;;;;;;12.37;9.03;;;15.00;99.90;;;;;;5073471;28;20624;-76
2023/06/03 03:25:43;;;;;;;12.37;8.40;;;15.00;99.90;;;;;;5073066;28;20551;-76
2023/06/03 03:28:08;;;;;;;11.73;8.10;;;15.00;99.90;;;;;;5073514;28;20178;-76
2023/06/03 03:30:37;;;;;;;13.63;8.90;;;15.00;99.90;;;;;;5073332;28;20203;-76
2023/06/03 03:33:04;;;;;;;13.27;8.53;;;14.90;99.90;;;;;;5073193;28;20159;-76
2023/06/03 03:35:39;;;;;;;14.03;8.93;;;14.90;99.90;;;;;;5072189;28;20197;-76
2023/06/03 03:38:06;;;;;;;16.90;9.40;;;15.00;99.90;;;;;;5073339;28;20178;-76
2023/06/03 03:40:36;;;;;;;13.73;8.80;;;14.80;99.90;;;;;;5073334;28;20175;-76
2023/06/03 03:43:05;;;;;;;13.10;8.43;;;14.70;99.90;;;;;;5073321;28;20175;-76
2023/06/03 03:45:35;;;;;;;16.87;9.50;;;14.80;99.90;;;;;;5073090;28;20627;-76
2023/06/03 03:48:03;;;;;;;15.00;9.20;;;14.90;99.90;;;;;;5071751;28;20612;-76
2023/06/03 03:50:45;;;;;;;14.63;8.80;;;14.90;99.90;;;;;;5073269;28;20161;-76
2023/06/03 03:53:17;;;;;;;14.63;8.70;;;14.80;99.90;;;;;;5073220;28;20164;-76
2023/06/03 03:55:44;;;;;;;12.80;8.90;;;14.80;99.90;;;;;;5071676;28;20168;-76
2023/06/03 03:58:37;;;;;;;13.73;9.40;;;14.70;99.90;;;;;;5073082;28;20204;-77
2023/06/03 04:01:23;;;;;;;12.00;9.00;;;14.60;99.90;;;;;;5072713;28;20178;-76
2023/06/03 04:03:52;;;;;;;15.53;9.47;;;14.50;99.90;;;;;;5071447;28;20327;-78
2023/06/03 04:06:24;;;;;;;16.17;8.87;;;14.40;99.90;;;;;;5072801;28;20573;-78
2023/06/03 04:08:52;;;;;;;13.37;8.93;;;14.50;99.90;;;;;;5073192;28;20184;-77
2023/06/03 04:11:27;;;;;;;14.53;9.03;;;14.60;99.90;;;;;;5071376;28;20237;-76
2023/06/03 04:14:00;;;;;;;11.93;8.47;;;14.60;99.90;;;;;;5072727;28;20204;-77
2023/06/03 04:16:53;;;;;;;13.60;9.27;;;14.50;99.90;;;;;;5070491;28;20179;-77
2023/06/03 04:19:30;;;;;;;14.17;9.00;;;14.60;99.90;;;;;;5071432;28;20632;-77
2023/06/03 04:21:57;;;;;;;14.70;9.20;;;14.70;99.90;;;;;;5071267;28;20186;-78
2023/06/03 04:24:23;;;;;;;12.67;8.37;;;14.70;99.90;;;;;;5072531;28;20166;-76
2023/06/03 04:26:49;;;;;;;18.30;9.07;;;14.80;99.90;;;;;;5072489;28;20152;-76
2023/06/03 04:29:16;;;;;;;15.10;9.23;;;14.80;99.90;;;;;;5072583;28;20505;-76
2023/06/03 04:31:41;;;;;;;13.10;8.73;;;14.70;99.90;;;;;;5070952;28;20620;-76
2023/06/03 04:34:07;;;;;;;17.17;9.10;;;14.70;99.90;;;;;;5072514;28;20179;-77
2023/06/03 04:36:34;;;;;;;16.80;9.40;;;14.70;99.90;;;;;;5071117;28;20640;-74
2023/06/03 04:38:59;;;;;;;15.93;8.53;;;14.50;99.90;;;;;;5071012;28;20189;-73
2023/06/03 04:41:27;;;;;;;14.30;9.50;;;14.60;99.90;;;;;;5072286;28;20178;-74
2023/06/03 04:43:57;;;;;;;13.13;8.43;;;14.60;99.90;;;;;;5071200;28;20166;-74
2023/06/03 04:46:29;;;;;;;14.07;9.03;;;14.60;99.90;;;;;;5072099;28;20205;-73
2023/06/03 04:48:58;;;;;;;15.87;9.03;;;14.70;99.90;;;;;;5073515;28;20203;-75
2023/06/03 04:51:27;;;;;;;14.40;8.43;;;14.70;99.90;;;;;;5071202;28;20539;-74
2023/06/03 04:53:57;;;;;;;14.57;8.13;;;14.80;99.90;;;;;;5070958;28;20182;-74
2023/06/03 04:56:29;;;;;;;19.70;9.10;;;14.90;99.90;;;;;;5072010;28;20171;-73
2023/06/03 04:59:03;;;;;;;17.87;8.87;;;14.90;99.90;;;;;;5071287;28;20194;-73
2023/06/03 05:01:31;;;;;;;15.13;8.90;;;15.00;99.90;;;;;;5071262;28;20221;-74
2023/06/03 05:03:59;;;;;;;15.80;9.20;;;15.10;99.90;;;;;;5072964;28;20163;-74
2023/06/03 05:06:26;;;;;;;16.70;8.00;;;15.00;99.90;;;;;;5073272;28;20691;-74
2023/06/03 05:08:53;;;;;;;14.57;8.60;;;15.10;99.90;;;;;;5071394;28;20217;-74
2023/06/03 05:11:20;;;;;;;16.97;8.57;;;15.00;99.90;;;;;;5072372;28;20179;-74
2023/06/03 05:13:47;;;;;;;14.07;8.33;;;15.10;99.90;;;;;;5072039;28;20262;-74
2023/06/03 05:16:20;;;;;;;14.40;8.53;;;15.10;99.90;;;;;;5071636;28;20214;-76
2023/06/03 05:18:47;;;;;;;14.70;8.70;;;15.10;99.90;;;;;;5071670;28;20175;-76
2023/06/03 05:21:27;;;;;;;16.73;8.73;;;15.20;99.90;;;;;;5072353;28;20170;-78
2023/06/03 05:23:56;;;;;;;18.63;9.17;;;15.20;99.90;;;;;;5073631;28;20224;-77
2023/06/03 05:26:26;;;;;;;12.60;8.60;;;15.20;99.90;;;;;;5071145;28;20682;-77
2023/06/03 05:28:53;;;;;;;13.90;8.50;;;15.20;99.90;;;;;;5075330;28;20251;-77
2023/06/03 05:31:20;;;;;;;14.50;8.30;;;15.20;99.90;;;;;;5076341;28;20171;-77
2023/06/03 05:34:03;;;;;;;15.17;8.43;;;15.20;99.90;;;;;;5075930;28;20700;-77
2023/06/03 05:36:32;;;;;;;15.77;8.93;;;15.30;99.90;;;;;;5076053;28;20198;-76
2023/06/03 05:38:58;;;;;;;12.07;7.57;;;15.30;99.90;;;;;;5076251;28;20203;-77
2023/06/03 05:41:27;;;;;;;21.00;8.03;;;15.30;99.90;;;;;;5075042;28;20655;-77
2023/06/03 05:43:56;;;;;;;17.80;8.67;;;15.20;99.90;;;;;;5076204;28;20250;-77
2023/06/03 05:46:22;;;;;;;12.80;8.80;;;15.20;99.90;;;;;;5075992;28;20617;-77
2023/06/03 05:48:48;;;;;;;16.80;8.70;;;15.30;99.90;;;;;;5075872;28;20151;-77
2023/06/03 05:51:13;;;;;;;16.87;7.67;;;15.40;99.90;;;;;;5074449;28;20169;-76
2023/06/03 05:53:43;;;;;;;13.50;7.70;;;15.30;99.90;;;;;;5074778;28;20159;-76
2023/06/03 05:56:10;;;;;;;15.20;7.20;;;15.40;99.90;;;;;;5074620;28;20503;-77
2023/06/03 05:58:38;;;;;;;13.73;7.77;;;15.60;99.90;;;;;;5075525;28;20156;-76
2023/06/03 06:01:05;;;;;;;13.83;7.90;;;15.80;99.90;;;;;;5075593;28;20201;-76
2023/06/03 06:03:37;;;;;;;12.63;7.23;;;15.90;99.90;;;;;;5074195;28;20251;-76
2023/06/03 06:06:04;;;;;;;11.90;7.67;;;16.00;99.90;;;;;;5075205;28;20195;-76
2023/06/03 06:08:31;;;;;;;15.10;7.73;;;16.10;99.90;;;;;;5075298;28;20230;-77
2023/06/03 06:11:03;;;;;;;13.67;7.40;;;16.00;99.90;;;;;;5075585;28;20220;-76
2023/06/03 06:13:40;;;;;;;13.17;6.63;;;16.00;99.90;;;;;;5074739;28;20231;-77
2023/06/03 06:16:09;;;;;;;11.77;6.63;;;16.20;99.90;;;;;;5073653;28;20176;-77
2023/06/03 06:18:44;;;;;;;15.80;6.70;;;16.10;99.90;;;;;;5075250;28;20171;-77
2023/06/03 06:21:29;;;;;;;14.93;7.37;;;16.00;99.90;;;;;;5074371;28;20171;-77
2023/06/03 06:24:05;;;;;;;11.43;6.60;;;16.10;99.90;;;;;;5075096;28;20175;-77
2023/06/03 06:26:35;;;;;;;10.10;6.87;;;16.20;99.90;;;;;;5074865;28;20245;-75
2023/06/03 06:29:20;;;;;;;12.03;6.30;;;16.20;99.90;;;;;;5074578;28;20159;-78
2023/06/03 06:31:53;;;;;;;9.60;6.17;;;16.20;99.90;;;;;;5074940;28;20155;-76
2023/06/03 06:34:19;;;;;;;11.50;5.90;;;16.40;99.90;;;;;;5074605;28;20172;-75
2023/06/03 06:37:03;;;;;;;10.40;5.93;;;16.40;99.90;;;;;;5074749;28;20640;-77
2023/06/03 06:39:50;;;;;;;15.47;6.63;;;16.40;99.90;;;;;;5074014;28;20586;-76
2023/06/03 06:42:32;;;;;;;10.60;6.10;;;16.50;99.90;;;;;;5074514;28;20161;-78
2023/06/03 06:45:30;;;;;;;11.47;5.17;;;16.70;99.90;;;;;;5073362;28;20223;-77
2023/06/03 06:48:13;;;;;;;11.17;6.30;;;16.80;99.90;;;;;;5073295;28;20203;-76
2023/06/03 06:50:54;;;;;;;12.80;6.20;;;16.90;99.90;;;;;;5074507;28;20165;-77
2023/06/03 06:53:23;;;;;;;11.67;6.27;;;17.00;99.90;;;;;;5074360;28;20606;-76
2023/06/03 06:55:56;;;;;;;12.03;5.70;;;17.00;99.90;;;;;;5073954;28;20167;-77
2023/06/03 06:58:26;;;;;;;8.43;5.23;;;17.10;99.90;;;;;;5074044;28;20163;-76
2023/06/03 07:00:51;;;;;;;11.47;5.50;;;17.10;99.90;;;;;;5074683;28;20260;-78
2023/06/03 07:03:20;;;;;;;14.63;6.13;;;17.10;99.90;;;;;;5065441;28;20271;-75
2023/06/03 07:05:52;;;;;;;12.00;5.73;;;17.20;99.90;;;;;;5069292;28;20200;-75
2023/06/03 07:08:23;;;;;;;12.90;5.70;;;17.20;99.90;;;;;;5070491;28;20650;-74
2023/06/03 07:10:50;;;;;;;11.53;5.27;;;17.30;99.90;;;;;;5068972;28;20176;-76
2023/06/03 07:13:16;;;;;;;8.27;5.03;;;17.40;99.90;;;;;;5072453;28;20177;-75
2023/06/03 07:15:45;;;;;;;7.73;4.47;;;17.50;99.90;;;;;;5070270;28;20264;-76
2023/06/03 07:18:12;;;;;;;9.40;4.73;;;17.60;99.90;;;;;;5068882;28;20176;-75
2023/06/03 07:20:43;;;;;;;9.57;4.40;;;17.70;99.90;;;;;;5072861;28;20302;-75
2023/06/03 07:23:13;;;;;;;11.83;4.47;;;17.80;99.90;;;;;;5073246;28;20174;-74
2023/06/03 07:25:46;;;;;;;8.70;4.30;;;17.90;99.90;;;;;;5073460;28;20221;-74
2023/06/03 07:28:15;;;;;;;7.40;4.43;;;18.10;99.90;;;;;;5074001;28;20172;-74
2023/06/03 07:30:44;;;;;;;7.30;3.67;;;18.10;99.90;;;;;;5073860;28;20229;-74
2023/06/03 07:33:28;;;;;;;6.63;3.27;;;18.10;99.90;;;;;;5072504;28;20266;-75
2023/06/03 07:35:58;;;;;;;10.07;3.63;;;18.10;99.90;;;;;;5071086;28;20552;-75
2023/06/03 07:38:39;;;;;;;8.40;3.83;;;18.20;99.90;;;;;;5071556;28;20189;-75
2023/06/03 07:41:06;;;;;;;7.77;3.90;;;18.30;99.90;;;;;;5072810;28;20490;-75
2023/06/03 07:43:35;;;;;;;11.37;3.63;;;18.50;99.90;;;;;;5072869;28;20177;-75
2023/06/03 07:46:09;;;;;;;9.80;3.80;;;18.60;99.90;;;;;;5070770;28;20207;-75
2023/06/03 07:48:38;;;;;;;8.03;3.47;;;18.70;99.90;;;;;;5073705;28;20173;-76
2023/06/03 07:51:09;;;;;;;8.37;3.80;;;18.70;99.90;;;;;;5072382;28;20154;-74
2023/06/03 07:53:39;;;;;;;5.10;3.23;;;18.80;99.90;;;;;;5073104;28;20585;-74
2023/06/03 07:56:13;;;;;;;8.80;3.37;;;18.80;99.90;;;;;;5072657;28;20200;-75
2023/06/03 07:58:40;;;;;;;7.10;3.10;;;19.00;99.90;;;;;;5073247;28;20170;-75
2023/06/03 08:01:06;;;;;;;12.50;3.60;;;19.30;99.90;;;;;;5073038;28;20198;-77
2023/06/03 08:03:32;;;;;;;11.07;3.40;;;19.30;99.90;;;;;;5072275;28;20221;-74
2023/06/03 08:05:58;;;;;;;4.57;2.67;;;19.30;98.80;;;;;;5072359;28;20247;-74
2023/06/03 08:08:32;;;;;;;5.07;2.70;;;19.40;98.10;;;;;;5073486;28;20257;-74
2023/06/03 08:11:03;;;;;;;8.37;3.27;;;19.40;97.70;;;;;;5071937;28;20169;-74
2023/06/03 08:13:28;;;;;;;4.63;2.47;;;19.50;98.30;;;;;;5073585;28;20476;-74
2023/06/03 08:15:54;;;;;;;5.50;2.20;;;19.40;96.40;;;;;;5071636;28;20174;-76
2023/06/03 08:18:48;;;;;;;8.37;3.00;;;19.40;96.10;;;;;;5073388;28;20175;-75
2023/06/03 08:21:14;;;;;;;13.57;5.20;;;19.30;96.20;;;;;;5071858;28;20227;-75
2023/06/03 08:23:41;;;;;;;6.87;2.53;;;19.50;96.20;;;;;;5073406;28;20155;-75
2023/06/03 08:26:08;;;;;;;5.20;2.73;;;19.60;96.40;;;;;;5073151;28;20557;-76
2023/06/03 08:28:38;;;;;;;7.10;2.30;;;19.70;96.20;;;;;;5073230;28;20140;-76
2023/06/03 08:31:04;;;;;;;4.80;2.60;;;19.90;95.90;;;;;;5071570;28;20280;-76
2023/06/03 08:33:29;;;;;;;5.93;2.90;;;20.00;95.50;;;;;;5071518;28;20194;-76
2023/06/03 08:35:55;;;;;;;5.03;2.33;;;20.00;95.00;;;;;;5072979;28;20191;-76
2023/06/03 08:38:21;;;;;;;7.10;2.20;;;20.10;94.30;;;;;;5073055;28;20183;-76
2023/06/03 08:40:49;;;;;;;5.13;2.30;;;20.00;92.30;;;;;;5073260;28;20243;-76
2023/06/03 08:43:16;;;;;;;5.93;2.17;;;19.80;92.40;;;;;;5073018;28;20158;-76
2023/06/03 08:45:59;;;;;;;4.17;2.10;;;19.90;93.40;;;;;;5073546;28;20183;-77
2023/06/03 08:48:44;;;;;;;4.47;1.50;;;20.10;93.60;;;;;;5073563;28;20592;-77
2023/06/03 08:51:15;;;;;;;3.87;1.63;;;20.00;92.10;;;;;;5073123;28;20569;-76
2023/06/03 08:53:50;;;;;;;5.33;2.00;;;20.00;92.50;;;;;;5072730;28;20167;-75
2023/06/03 08:56:19;;;;;;;6.07;2.07;;;20.10;92.30;;;;;;5072344;28;20525;-75
2023/06/03 08:59:05;;;;;;;5.70;1.77;;;20.10;91.10;;;;;;5071611;28;20170;-74
2023/06/03 09:01:35;;;;;;;5.40;2.10;;;20.10;90.90;;;;;;5070925;28;20180;-75
2023/06/03 09:04:03;;;;;;;4.93;1.73;;;20.00;91.10;;;;;;5075875;28;20159;-75
2023/06/03 09:06:29;;;;;;;3.80;1.80;;;20.00;91.50;;;;;;5076052;28;20193;-74
2023/06/03 09:08:57;;;;;;;3.37;1.70;;;20.10;90.60;;;;;;5075037;28;20262;-75
2023/06/03 09:11:23;;;;;;;8.50;2.20;;;20.30;90.70;;;;;;5074834;28;20164;-74
2023/06/03 09:13:51;;;;;;;4.57;2.00;;;20.30;90.20;;;;;;5076106;28;20161;-76
2023/06/03 09:16:19;;;;;;;2.53;1.53;;;20.30;90.20;;;;;;5075923;28;20662;-74
2023/06/03 09:18:49;;;;;;;5.33;1.67;;;20.30;90.00;;;;;;5076254;28;20673;-76
2023/06/03 09:21:15;;;;;;;2.50;1.77;;;20.40;89.30;;;;;;5074444;28;20535;-75
2023/06/03 09:23:41;;;;;;;4.37;1.77;;;20.60;89.30;;;;;;5074655;28;20463;-75
2023/06/03 09:26:07;;;;;;;3.50;1.40;;;20.80;87.90;;;;;;5075656;28;20201;-75
2023/06/03 09:28:35;;;;;;;4.73;1.60;;;20.70;86.60;;;;;;5075554;28;20612;-75
2023/06/03 09:31:02;;;;;;;3.00;1.50;;;20.70;87.60;;;;;;5075574;28;20159;-75
2023/06/03 09:33:28;;;;;;;6.60;1.97;;;20.70;86.10;;;;;;5075241;28;20230;-75
2023/06/03 09:36:13;;;;;;;4.13;1.43;;;20.80;86.20;;;;;;5075055;28;20593;-75
2023/06/03 09:38:56;;;;;;;5.20;2.47;;;20.90;84.70;;;;;;5075679;28;20201;-76
2023/06/03 09:41:26;;;;;;;4.07;1.90;;;20.90;84.20;;;;;;5056016;28;20160;-76
2023/06/03 09:44:01;;;;;;;3.73;1.60;;;21.00;85.30;;;;;;5056237;28;20267;-75
2023/06/03 09:46:32;;;;;;;2.53;1.77;;;21.10;84.20;;;;;;5075481;28;20718;-75
2023/06/03 09:49:17;;;;;;;6.97;2.70;;;21.20;85.90;;;;;;5071566;28;20190;-75
2023/06/03 09:51:48;;;;;;;5.17;1.63;;;21.30;84.10;;;;;;5089568;28;20171;-75
2023/06/03 09:54:22;;;;;;;8.33;1.97;;;21.30;82.30;;;;;;5075682;28;20613;-75
2023/06/03 09:56:47;;;;;;;4.47;1.73;;;21.30;83.10;;;;;;5074483;28;20171;-75
2023/06/03 09:59:23;;;;;;;6.67;2.00;;;21.30;82.70;;;;;;5075791;28;20159;-75
2023/06/03 10:01:53;;;;;;;4.87;1.53;;;20.90;82.40;;;;;;5074378;28;20646;-75
2023/06/03 10:04:24;;;;;;;6.43;2.37;;;20.90;82.00;;;;;;5075559;28;20186;-74
2023/06/03 10:07:16;;;;;;;7.33;1.97;;;21.00;84.30;;;;;;5074306;28;20175;-76
2023/06/03 10:09:45;;;;;;;3.87;1.60;;;21.20;82.90;;;;;;5074364;28;20274;-76
2023/06/03 10:12:14;;;;;;;4.60;1.73;;;21.30;82.50;;;;;;5074882;28;20163;-76
2023/06/03 10:14:55;;;;;;;8.33;2.60;;;21.50;83.00;;;;;;5073471;28;20158;-78
2023/06/03 10:17:21;;;;;;;4.07;2.03;;;21.70;81.40;;;;;;5074548;28;20613;-75
2023/06/03 10:20:32;;;;;;;6.63;1.83;;;21.80;81.40;;;;;;5068188;28;20192;-77
2023/06/03 10:23:03;;;;;;;8.53;2.10;;;21.80;80.80;;;;;;5053063;28;20187;-76
2023/06/03 10:25:55;;;;;;;8.23;2.00;;;21.80;79.80;;;;;;5054302;28;20231;-75
2023/06/03 10:28:21;;;;;;;4.70;1.67;;;22.00;80.40;;;;;;5051674;28;20183;-75
2023/06/03 10:30:49;;;;;;;3.63;2.00;;;22.10;80.30;;;;;;5054352;28;20193;-74
2023/06/03 10:33:18;;;;;;;6.70;1.93;;;22.20;80.10;;;;;;5054384;28;20164;-74
2023/06/03 10:35:46;;;;;;;5.93;1.80;;;22.20;79.10;;;;;;5052705;28;20184;-75
2023/06/03 10:38:14;;;;;;;6.47;2.10;;;22.30;79.10;;;;;;5052916;28;20206;-76
2023/06/03 10:40:40;;;;;;;9.93;2.03;;;22.50;79.10;;;;;;5055299;28;20242;-75
2023/06/03 10:43:09;;;;;;;12.57;2.10;;;22.50;77.00;;;;;;5055767;28;20156;-76
2023/06/03 10:45:35;;;;;;;5.50;2.00;;;22.70;76.50;;;;;;5054144;28;20192;-76
2023/06/03 10:48:08;;;;;;;5.47;1.90;;;22.70;77.10;;;;;;5053169;28;20170;-75
2023/06/03 10:50:59;;;;;;;3.97;1.43;;;22.70;75.70;;;;;;5052822;28;20513;-75
2023/06/03 10:53:46;;;;;;;4.57;1.47;;;22.70;75.00;;;;;;5054463;28;20161;-74
2023/06/03 10:56:26;;;;;;;6.13;1.50;;;22.50;74.60;;;;;;5054612;28;20263;-74
2023/06/03 10:59:05;;;;;;;6.57;1.57;;;22.40;74.50;;;;;;5052497;28;20637;-75
2023/06/03 11:01:59;;;;;;;3.53;1.60;;;22.50;74.80;;;;;;5052648;28;20167;-74
2023/06/03 11:04:29;;;;;;;3.40;1.90;;;22.60;73.60;;;;;;5052428;28;20176;-74
2023/06/03 11:06:55;;;;;;;7.07;2.07;;;22.50;74.40;;;;;;5053856;28;20194;-75
2023/06/03 11:09:37;;;;;;;8.53;1.90;;;22.70;74.10;;;;;;5052915;28;20160;-74
2023/06/03 11:12:15;;;;;;;4.00;1.70;;;22.90;73.80;;;;;;5052607;28;20164;-75
2023/06/03 11:14:42;;;;;;;7.23;2.00;;;23.20;73.10;;;;;;5053703;28;20149;-75
2023/06/03 11:17:10;;;;;;;3.07;2.00;;;23.60;72.00;;;;;;5052513;28;20180;-76
2023/06/03 11:19:45;;;;;;;3.23;1.50;;;24.00;70.00;;;;;;5052263;28;20180;-75
2023/06/03 11:22:13;;;;;;;1.83;1.43;;;24.60;69.60;;;;;;5053668;28;20493;-75
2023/06/03 11:24:38;;;;;;;3.33;1.63;;;24.70;68.10;;;;;;5053395;28;20198;-75
2023/06/03 11:27:10;;;;;;;6.50;1.70;;;24.60;67.20;;;;;;5053362;28;20684;-76
2023/06/03 11:29:56;;;;;;;3.70;1.67;;;24.70;67.20;;;;;;5053497;28;20165;-75
2023/06/03 11:32:30;;;;;;;3.37;1.23;;;24.90;65.40;;;;;;5053169;28;20179;-75
2023/06/03 11:35:04;;;;;;;2.90;1.57;;;25.30;65.90;;;;;;5053208;28;20221;-74
2023/06/03 11:37:48;;;;;;;2.87;1.33;;;25.10;64.70;;;;;;5053334;28;20164;-75
2023/06/03 11:40:18;;;;;;;4.10;1.47;;;25.60;64.60;;;;;;5053171;28;20164;-76
2023/06/03 11:42:50;;;;;;;3.03;1.47;;;25.60;64.10;;;;;;5053116;28;20160;-75
2023/06/03 11:45:24;;;;;;;4.70;1.67;;;25.70;62.70;;;;;;5052985;28;20664;-74
2023/06/03 11:48:07;;;;;;;7.13;1.90;;;25.90;62.30;;;;;;5053404;28;20499;-74
2023/06/03 11:50:46;;;;;;;4.17;1.93;;;26.10;61.70;;;;;;5053089;28;20263;-74
2023/06/03 11:53:31;;;;;;;5.00;1.73;;;25.90;61.80;;;;;;5051702;28;20163;-76
2023/06/03 11:56:12;;;;;;;6.60;1.53;;;26.30;60.80;;;;;;5052922;28;20534;-75
2023/06/03 11:58:42;;;;;;;4.03;1.87;;;26.30;59.90;;;;;;5053210;28;20174;-76
2023/06/03 12:01:16;;;;;;;3.40;2.20;;;26.80;60.20;;;;;;5051305;28;20163;-76
2023/06/03 12:04:00;;;;;;;8.40;1.60;;;27.60;59.00;;;;;;5051767;28;20171;-76
2023/06/03 12:06:32;;;;;;;4.17;1.67;;;28.60;58.40;;;;;;5053129;28;20238;-75
2023/06/03 12:08:58;;;;;;;1.73;1.47;;;28.20;56.80;;;;;;5053076;28;20680;-75
2023/06/03 12:11:32;;;;;;;3.60;1.63;;;27.60;55.70;;;;;;5051539;28;20225;-75
2023/06/03 12:13:58;;;;;;;4.40;1.73;;;27.50;56.40;;;;;;5051990;28;20191;-74
2023/06/03 12:16:33;;;;;;;7.53;1.83;;;27.30;57.20;;;;;;5051089;28;20706;-75
2023/06/03 12:19:01;;;;;;;6.57;1.60;;;27.80;55.90;;;;;;5052754;28;20171;-75
2023/06/03 12:21:27;;;;;;;5.53;1.83;;;27.60;54.30;;;;;;5051326;28;20164;-75
2023/06/03 12:23:53;;;;;;;4.23;1.53;;;27.70;55.50;;;;;;5051385;28;20622;-77
2023/06/03 12:26:20;;;;;;;4.00;1.47;;;27.40;54.40;;;;;;5051262;28;20191;-77
2023/06/03 12:28:46;;;;;;;3.23;1.77;;;27.40;55.10;;;;;;5052839;28;20190;-77
2023/06/03 12:31:15;;;;;;;5.77;1.47;;;27.20;55.00;;;;;;5052865;28;20163;-77
2023/06/03 12:33:42;;;;;;;3.10;1.60;;;27.40;54.70;;;;;;5051419;28;20176;-78
2023/06/03 12:36:08;;;;;;;4.43;1.63;;;27.70;53.90;;;;;;5052457;28;20657;-77
2023/06/03 12:38:34;;;;;;;2.90;2.00;;;28.10;53.40;;;;;;5052259;28;20197;-77
2023/06/03 12:41:08;;;;;;;4.40;1.60;;;28.60;54.00;;;;;;5052547;28;20171;-76
2023/06/03 12:43:38;;;;;;;4.40;1.70;;;28.20;52.90;;;;;;5051991;28;20160;-77
2023/06/03 12:46:16;;;;;;;2.80;1.37;;;28.60;53.30;;;;;;5052137;28;20244;-77
2023/06/03 12:48:44;;;;;;;4.20;1.70;;;29.80;52.20;;;;;;5051975;28;20163;-76
2023/06/03 12:51:26;;;;;;;2.58;1.48;;;30.80;50.40;;;;;;5051541;28;20171;-76
2023/06/03 12:53:58;;;;;;;3.43;1.97;;;30.70;49.60;;;;;;5052780;28;20213;-77
2023/06/03 12:56:28;;;;;;;4.30;2.47;;;29.80;49.20;;;;;;5051879;28;20270;-77
2023/06/03 12:58:54;;;;;;;3.40;1.80;;;29.30;50.30;;;;;;5051382;28;20167;-77